createdAt,value
2023-04-29T00:00:06.658Z,12.00
2023-04-29T00:02:59.046Z,11.97
2023-04-29T00:05:45.541Z,11.93
2023-04-29T00:08:31.813Z,11.92
2023-04-29T00:11:17.556Z,11.90
2023-04-29T00:14:03.370Z,11.90
2023-04-29T00:16:49.229Z,11.87
2023-04-29T00:19:36.272Z,11.88
2023-04-29T00:22:22.693Z,11.87
2023-04-29T00:25:09.585Z,11.86
2023-04-29T00:27:56.169Z,11.80
2023-04-29T00:30:42.295Z,11.80
2023-04-29T00:33:28.468Z,11.80
2023-04-29T00:36:15.912Z,11.76
2023-04-29T00:39:01.965Z,11.76
2023-04-29T00:41:47.891Z,11.75
2023-04-29T00:44:33.602Z,11.73
2023-04-29T00:47:19.343Z,11.70
2023-04-29T00:50:05.805Z,11.70
2023-04-29T00:52:56.216Z,11.69
2023-04-29T00:55:42.167Z,11.66
2023-04-29T00:58:33.052Z,11.64
2023-04-29T01:01:19.186Z,11.62
2023-04-29T01:04:05.381Z,11.60
2023-04-29T01:06:58.172Z,11.62
2023-04-29T01:09:56.752Z,11.59
2023-04-29T01:12:44.257Z,11.60
2023-04-29T01:15:31.660Z,11.56
2023-04-29T01:18:20.314Z,11.50
2023-04-29T01:21:06.600Z,11.49
2023-04-29T01:23:56.278Z,11.51
2023-04-29T01:26:44.084Z,11.49
2023-04-29T01:29:41.324Z,11.47
2023-04-29T01:32:33.337Z,11.46
2023-04-29T01:35:23.644Z,11.44
2023-04-29T01:38:12.968Z,11.46
2023-04-29T01:41:03.306Z,11.42
2023-04-29T01:43:49.348Z,11.40
2023-04-29T01:46:41.128Z,11.39
2023-04-29T01:49:27.457Z,11.40
2023-04-29T01:52:14.118Z,11.41
2023-04-29T01:55:04.571Z,11.39
2023-04-29T01:58:01.248Z,11.35
2023-04-29T02:01:06.157Z,11.36
2023-04-29T02:03:54.740Z,11.35
2023-04-29T02:06:40.687Z,11.38
2023-04-29T02:09:27.716Z,11.37
2023-04-29T02:12:20.457Z,11.38
2023-04-29T02:15:08.944Z,11.34
2023-04-29T02:17:55.120Z,11.28
2023-04-29T02:20:41.122Z,11.19
2023-04-29T02:23:27.056Z,11.23
2023-04-29T02:26:13.982Z,11.20
2023-04-29T02:28:59.799Z,11.19
2023-04-29T02:31:47.613Z,11.14
2023-04-29T02:34:33.752Z,11.13
2023-04-29T02:37:20.498Z,11.08
2023-04-29T02:40:07.483Z,11.07
2023-04-29T02:42:53.188Z,11.06
2023-04-29T02:45:39.346Z,11.02
2023-04-29T02:48:27.320Z,11.01
2023-04-29T02:51:13.068Z,10.89
2023-04-29T02:53:58.869Z,10.94
2023-04-29T02:56:44.829Z,10.93
2023-04-29T02:59:30.933Z,10.88
2023-04-29T03:02:17.175Z,10.88
2023-04-29T03:05:07.341Z,10.83
2023-04-29T03:07:53.521Z,10.80
2023-04-29T03:10:41.486Z,10.73
2023-04-29T03:13:27.817Z,10.75
2023-04-29T03:16:14.357Z,10.70
2023-04-29T03:19:00.000Z,10.65
2023-04-29T03:21:47.057Z,10.59
2023-04-29T03:24:32.776Z,10.55
2023-04-29T03:27:19.705Z,10.52
2023-04-29T03:30:06.854Z,10.48
2023-04-29T03:32:54.103Z,10.52
2023-04-29T03:35:39.813Z,10.47
2023-04-29T03:38:47.534Z,10.44
2023-04-29T03:41:34.731Z,10.44
2023-04-29T03:44:20.851Z,10.43
2023-04-29T03:47:06.759Z,10.39
2023-04-29T03:49:53.615Z,10.32
2023-04-29T03:52:40.098Z,10.31
2023-04-29T03:55:32.212Z,10.26
2023-04-29T03:58:18.523Z,10.25
2023-04-29T04:01:04.373Z,10.28
2023-04-29T04:03:57.937Z,10.29
2023-04-29T04:06:44.167Z,10.28
2023-04-29T04:09:33.404Z,10.25
2023-04-29T04:12:20.701Z,10.26
2023-04-29T04:15:07.410Z,10.25
2023-04-29T04:17:53.476Z,10.26
2023-04-29T04:20:39.663Z,10.24
2023-04-29T04:23:26.013Z,10.23
2023-04-29T04:26:12.899Z,10.17
2023-04-29T04:29:22.150Z,10.20
2023-04-29T04:32:17.884Z,10.18
2023-04-29T04:35:04.301Z,10.18
2023-04-29T04:37:50.617Z,10.12
2023-04-29T04:40:36.361Z,10.12
2023-04-29T04:43:41.385Z,10.16
2023-04-29T04:46:35.333Z,10.10
2023-04-29T04:49:28.122Z,10.08
2023-04-29T04:52:14.247Z,10.07
2023-04-29T04:55:02.119Z,10.08
2023-04-29T04:57:50.258Z,10.06
2023-04-29T05:00:36.777Z,10.02
2023-04-29T05:03:24.138Z,9.99
2023-04-29T05:06:10.273Z,9.97
2023-04-29T05:08:58.459Z,10.00
2023-04-29T05:11:44.707Z,9.96
2023-04-29T05:14:33.080Z,9.97
2023-04-29T05:17:18.824Z,9.93
2023-04-29T05:20:08.113Z,9.96
2023-04-29T05:22:54.182Z,9.89
2023-04-29T05:25:40.531Z,9.93
2023-04-29T05:28:27.634Z,9.95
2023-04-29T05:31:14.167Z,9.95
2023-04-29T05:33:59.981Z,9.96
2023-04-29T05:36:47.226Z,9.98
2023-04-29T05:39:33.787Z,9.98
2023-04-29T05:42:28.538Z,9.93
2023-04-29T05:45:14.430Z,9.95
2023-04-29T05:48:00.206Z,9.92
2023-04-29T05:50:48.087Z,9.88
2023-04-29T05:53:35.737Z,9.90
2023-04-29T05:56:22.315Z,9.92
2023-04-29T05:59:08.276Z,9.92
2023-04-29T06:01:54.082Z,9.93
2023-04-29T06:04:41.543Z,9.93
2023-04-29T06:07:38.712Z,9.94
2023-04-29T06:10:52.163Z,9.86
2023-04-29T06:13:38.410Z,9.93
2023-04-29T06:16:24.562Z,9.97
2023-04-29T06:19:10.805Z,10.00
2023-04-29T06:21:57.118Z,10.03
2023-04-29T06:24:42.948Z,10.05
2023-04-29T06:27:32.032Z,10.06
2023-04-29T06:30:17.772Z,10.09
2023-04-29T06:33:03.542Z,10.12
2023-04-29T06:35:49.767Z,10.15
2023-04-29T06:39:02.035Z,10.18
2023-04-29T06:42:07.898Z,10.20
2023-04-29T06:45:27.240Z,10.22
2023-04-29T06:48:23.737Z,10.28
2023-04-29T06:51:09.749Z,10.29
2023-04-29T06:53:57.556Z,10.33
2023-04-29T06:56:43.690Z,10.35
2023-04-29T06:59:29.713Z,10.33
2023-04-29T07:02:16.780Z,10.45
2023-04-29T07:05:02.775Z,10.55
2023-04-29T07:07:48.980Z,10.67
2023-04-29T07:10:34.967Z,10.77
2023-04-29T07:13:20.919Z,10.92
2023-04-29T07:16:15.541Z,11.14
2023-04-29T07:19:02.720Z,11.34
2023-04-29T07:21:48.671Z,11.52
2023-04-29T07:24:34.789Z,11.80
2023-04-29T07:27:20.601Z,11.95
2023-04-29T07:30:07.175Z,12.17
2023-04-29T07:32:52.854Z,12.25
2023-04-29T07:35:41.610Z,12.49
2023-04-29T07:38:29.552Z,12.68
2023-04-29T07:41:16.108Z,12.83
2023-04-29T07:44:01.998Z,12.86
2023-04-29T07:46:48.212Z,13.07
2023-04-29T07:49:34.210Z,13.16
2023-04-29T07:52:21.998Z,13.36
2023-04-29T07:55:09.265Z,13.49
2023-04-29T07:57:55.333Z,14.02
2023-04-29T08:00:41.464Z,14.30
2023-04-29T08:03:28.117Z,14.60
2023-04-29T08:06:14.246Z,15.16
2023-04-29T08:09:03.439Z,15.80
2023-04-29T08:11:49.848Z,16.41
2023-04-29T08:14:35.695Z,16.90
2023-04-29T08:17:21.884Z,17.24
2023-04-29T08:20:09.238Z,17.90
2023-04-29T08:22:55.400Z,18.37
2023-04-29T08:25:43.860Z,18.47
2023-04-29T08:28:30.035Z,18.95
2023-04-29T08:31:19.003Z,19.22
2023-04-29T08:34:04.720Z,19.40
2023-04-29T08:36:50.579Z,19.38
2023-04-29T08:39:36.316Z,19.43
2023-04-29T08:42:29.896Z,19.25
2023-04-29T08:45:15.727Z,19.29
2023-04-29T08:48:02.140Z,18.85
2023-04-29T08:50:48.238Z,18.87
2023-04-29T08:53:34.147Z,18.64
2023-04-29T08:56:21.864Z,18.39
2023-04-29T08:59:10.295Z,18.00
2023-04-29T09:01:56.036Z,17.90
2023-04-29T09:04:43.296Z,17.61
2023-04-29T09:07:29.255Z,17.59
2023-04-29T09:10:15.273Z,17.28
2023-04-29T09:13:01.207Z,17.12
2023-04-29T09:15:48.267Z,16.90
2023-04-29T09:18:43.764Z,16.62
2023-04-29T09:21:32.151Z,16.26
2023-04-29T09:24:18.186Z,15.93
2023-04-29T09:27:04.478Z,15.66
2023-04-29T09:30:00.984Z,15.62
2023-04-29T09:32:48.212Z,15.54
2023-04-29T09:35:34.137Z,15.50
2023-04-29T09:38:20.920Z,15.49
2023-04-29T09:41:09.880Z,15.45
2023-04-29T09:44:04.135Z,15.36
2023-04-29T09:46:55.398Z,15.28
2023-04-29T09:49:45.123Z,15.31
2023-04-29T09:52:31.126Z,15.35
2023-04-29T09:55:17.277Z,15.43
2023-04-29T09:58:03.122Z,15.51
2023-04-29T10:00:49.240Z,15.67
2023-04-29T10:03:35.773Z,15.84
2023-04-29T10:06:23.906Z,15.95
2023-04-29T10:09:09.707Z,16.38
2023-04-29T10:11:55.659Z,16.60
2023-04-29T10:14:46.807Z,16.97
2023-04-29T10:17:34.395Z,17.60
2023-04-29T10:20:22.828Z,17.53
2023-04-29T10:23:10.239Z,17.65
2023-04-29T10:25:56.021Z,18.18
2023-04-29T10:28:41.714Z,18.30
2023-04-29T10:31:28.344Z,18.49
2023-04-29T10:34:14.605Z,18.49
2023-04-29T10:37:00.886Z,18.48
2023-04-29T10:39:49.386Z,18.28
2023-04-29T10:42:36.046Z,18.42
2023-04-29T10:45:22.736Z,18.34
2023-04-29T10:48:15.607Z,18.31
2023-04-29T10:51:02.649Z,18.29
2023-04-29T10:53:59.130Z,18.20
2023-04-29T10:56:49.169Z,18.01
2023-04-29T10:59:46.016Z,17.90
2023-04-29T11:02:31.955Z,17.91
2023-04-29T11:05:18.561Z,17.77
2023-04-29T11:08:11.068Z,17.63
2023-04-29T11:11:01.825Z,17.52
2023-04-29T11:13:49.079Z,17.47
2023-04-29T11:16:37.197Z,17.66
2023-04-29T11:19:22.967Z,18.07
2023-04-29T11:22:15.787Z,18.61
2023-04-29T11:25:02.397Z,18.97
2023-04-29T11:27:49.067Z,19.26
2023-04-29T11:30:36.379Z,19.45
2023-04-29T11:33:22.556Z,19.22
2023-04-29T11:36:10.619Z,19.28
2023-04-29T11:38:56.881Z,19.59
2023-04-29T11:41:43.620Z,19.45
2023-04-29T11:44:29.298Z,19.83
2023-04-29T11:47:16.616Z,19.82
2023-04-29T11:50:03.340Z,19.89
2023-04-29T11:52:49.164Z,19.71
2023-04-29T11:55:35.094Z,19.73
2023-04-29T11:58:21.279Z,19.36
2023-04-29T12:01:07.192Z,19.37
2023-04-29T12:03:58.036Z,19.02
2023-04-29T12:06:44.254Z,19.01
2023-04-29T12:09:29.981Z,18.67
2023-04-29T12:12:15.846Z,18.59
2023-04-29T12:15:03.020Z,18.47
2023-04-29T12:17:48.929Z,18.21
2023-04-29T12:20:36.018Z,18.06
2023-04-29T12:23:23.072Z,17.93
2023-04-29T12:26:09.040Z,17.93
2023-04-29T12:28:55.449Z,17.77
2023-04-29T12:31:41.741Z,17.73
2023-04-29T12:34:27.833Z,17.62
2023-04-29T12:37:15.553Z,17.70
2023-04-29T12:40:01.348Z,17.87
2023-04-29T12:42:47.376Z,17.81
2023-04-29T12:45:33.995Z,17.67
2023-04-29T12:48:26.690Z,17.66
2023-04-29T12:51:18.013Z,17.56
2023-04-29T12:54:06.738Z,17.53
2023-04-29T12:56:52.456Z,17.51
2023-04-29T12:59:38.781Z,17.43
2023-04-29T13:02:24.851Z,17.17
2023-04-29T13:05:12.136Z,17.23
2023-04-29T13:07:58.378Z,17.20
2023-04-29T13:10:45.822Z,17.11
2023-04-29T13:13:31.670Z,17.09
2023-04-29T13:16:18.096Z,17.03
2023-04-29T13:19:13.102Z,17.06
2023-04-29T13:22:09.884Z,17.03
2023-04-29T13:24:55.993Z,16.89
2023-04-29T13:27:44.044Z,16.91
2023-04-29T13:30:30.382Z,16.74
2023-04-29T13:33:16.301Z,16.92
2023-04-29T13:36:02.268Z,16.70
2023-04-29T13:38:54.157Z,16.70
2023-04-29T13:41:42.224Z,16.63
2023-04-29T13:44:42.468Z,16.54
2023-04-29T13:47:52.473Z,16.49
2023-04-29T13:51:06.241Z,16.53
2023-04-29T13:59:42.584Z,16.26
2023-04-29T14:02:33.487Z,16.22
2023-04-29T14:05:19.972Z,16.26
2023-04-29T14:08:06.380Z,16.31
2023-04-29T14:10:52.353Z,16.31
2023-04-29T14:13:38.044Z,16.35
2023-04-29T14:16:23.973Z,16.39
2023-04-29T14:19:11.593Z,16.46
2023-04-29T14:21:57.754Z,16.53
2023-04-29T14:24:43.875Z,16.59
2023-04-29T14:27:29.857Z,16.62
2023-04-29T14:30:15.704Z,16.75
2023-04-29T14:33:01.779Z,16.83
2023-04-29T14:35:48.915Z,16.94
2023-04-29T14:38:34.811Z,17.01
2023-04-29T14:41:22.060Z,17.06
2023-04-29T14:44:07.936Z,17.11
2023-04-29T14:46:53.968Z,17.24
2023-04-29T14:49:39.641Z,17.29
2023-04-29T14:52:26.835Z,17.27
2023-04-29T14:55:12.578Z,17.37
2023-04-29T14:57:58.405Z,17.38
2023-04-29T15:00:44.249Z,17.50
2023-04-29T15:03:30.448Z,17.58
2023-04-29T15:06:16.412Z,17.47
2023-04-29T15:09:04.873Z,17.42
2023-04-29T15:11:50.734Z,17.46
2023-04-29T15:14:36.400Z,17.41
2023-04-29T15:17:22.497Z,17.39
2023-04-29T15:20:09.581Z,17.19
2023-04-29T15:22:55.651Z,17.09
2023-04-29T15:25:43.255Z,16.97
2023-04-29T15:28:29.300Z,16.82
2023-04-29T15:31:15.079Z,16.59
2023-04-29T15:34:00.853Z,16.52
2023-04-29T15:36:46.674Z,16.43
2023-04-29T15:39:32.486Z,16.31
2023-04-29T15:42:19.540Z,16.35
2023-04-29T15:45:06.907Z,16.21
2023-04-29T15:47:52.850Z,16.13
2023-04-29T15:50:39.230Z,16.07
2023-04-29T15:53:24.999Z,16.00
2023-04-29T15:56:11.047Z,15.85
2023-04-29T15:58:58.420Z,15.78
2023-04-29T16:01:44.908Z,15.65
2023-04-29T16:04:31.915Z,15.50
2023-04-29T16:07:17.962Z,15.37
2023-04-29T16:10:03.616Z,15.22
2023-04-29T16:12:49.767Z,15.17
2023-04-29T16:15:37.226Z,15.12
2023-04-29T16:18:23.202Z,15.06
2023-04-29T16:21:09.092Z,14.93
2023-04-29T16:23:55.006Z,14.92
2023-04-29T16:26:41.435Z,14.86
2023-04-29T16:29:27.444Z,14.77
2023-04-29T16:32:14.439Z,14.71
2023-04-29T16:35:01.510Z,14.64
2023-04-29T16:37:48.015Z,14.60
2023-04-29T16:40:33.701Z,14.54
2023-04-29T16:43:19.661Z,14.48
2023-04-29T16:46:05.493Z,14.43
2023-04-29T16:48:56.536Z,14.31
2023-04-29T16:51:42.801Z,14.27
2023-04-29T16:54:28.870Z,14.21
2023-04-29T16:57:14.622Z,14.15
2023-04-29T17:00:00.505Z,14.07
2023-04-29T17:02:49.092Z,13.95
2023-04-29T17:05:38.432Z,13.91
2023-04-29T17:08:25.129Z,13.79
2023-04-29T17:11:10.904Z,13.75
2023-04-29T17:13:56.684Z,13.68
2023-04-29T17:16:42.459Z,13.60
2023-04-29T17:19:28.292Z,13.54
2023-04-29T17:22:15.494Z,13.48
2023-04-29T17:25:01.688Z,13.40
2023-04-29T17:27:47.847Z,13.35
2023-04-29T17:30:34.443Z,13.23
2023-04-29T17:33:20.416Z,13.14
2023-04-29T17:36:07.129Z,13.12
2023-04-29T17:38:54.411Z,13.05
2023-04-29T17:41:40.258Z,12.99
2023-04-29T17:44:26.199Z,12.92
2023-04-29T17:47:12.641Z,12.84
2023-04-29T17:50:01.730Z,12.77
2023-04-29T17:52:48.743Z,12.71
2023-04-29T17:55:38.159Z,12.65
2023-04-29T17:58:24.210Z,12.51
2023-04-29T18:01:10.264Z,12.44
2023-04-29T18:03:56.453Z,12.41
2023-04-29T18:06:42.179Z,12.34
2023-04-29T18:09:27.971Z,12.24
2023-04-29T18:12:15.091Z,12.21
2023-04-29T18:15:01.633Z,12.16
2023-04-29T18:17:47.849Z,12.07
2023-04-29T18:20:34.287Z,11.98
2023-04-29T18:23:20.311Z,11.93
2023-04-29T18:26:06.248Z,11.90
2023-04-29T18:28:53.476Z,11.82
2023-04-29T18:31:39.381Z,11.68
2023-04-29T18:34:25.778Z,11.64
2023-04-29T18:37:11.737Z,11.58
2023-04-29T18:39:57.765Z,11.48
2023-04-29T18:42:43.413Z,11.41
2023-04-29T18:45:30.531Z,11.33
2023-04-29T18:48:16.421Z,11.25
2023-04-29T18:51:04.176Z,11.16
2023-04-29T18:53:50.086Z,11.09
2023-04-29T18:56:37.119Z,10.96
2023-04-29T18:59:24.341Z,10.90
2023-04-29T19:02:11.386Z,10.86
2023-04-29T19:04:57.328Z,10.77
2023-04-29T19:07:43.820Z,10.70
2023-04-29T19:10:30.027Z,10.64
2023-04-29T19:13:16.120Z,10.56
2023-04-29T19:16:02.641Z,10.46
2023-04-29T19:18:50.076Z,10.38
2023-04-29T19:21:36.235Z,10.34
2023-04-29T19:24:22.334Z,10.27
2023-04-29T19:27:08.343Z,10.21
2023-04-29T19:29:54.371Z,10.16
2023-04-29T19:32:40.496Z,10.09
2023-04-29T19:35:27.757Z,10.02
2023-04-29T19:38:14.100Z,9.95
2023-04-29T19:41:00.328Z,9.85
2023-04-29T19:43:46.126Z,9.81
2023-04-29T19:46:31.992Z,9.73
2023-04-29T19:49:17.998Z,9.68
2023-04-29T19:52:06.756Z,9.62
2023-04-29T19:54:52.721Z,9.51
2023-04-29T19:57:38.918Z,9.45
2023-04-29T20:00:24.787Z,9.42
2023-04-29T20:03:10.515Z,9.35
2023-04-29T20:05:56.602Z,9.28
2023-04-29T20:08:43.931Z,9.22
2023-04-29T20:11:29.609Z,9.18
2023-04-29T20:14:15.445Z,9.15
2023-04-29T20:17:02.462Z,9.08
2023-04-29T20:19:48.454Z,9.01
2023-04-29T20:22:34.219Z,8.98
2023-04-29T20:25:21.785Z,8.94
2023-04-29T20:28:08.899Z,8.86
2023-04-29T20:30:54.971Z,8.81
2023-04-29T20:33:40.794Z,8.78
2023-04-29T20:36:28.312Z,8.73
2023-04-29T20:39:14.487Z,8.66
2023-04-29T20:42:02.400Z,8.63
2023-04-29T20:44:48.379Z,8.57
2023-04-29T20:47:35.152Z,8.52
2023-04-29T20:50:21.495Z,8.45
2023-04-29T20:53:07.590Z,8.40
2023-04-29T20:55:53.309Z,8.32
2023-04-29T20:58:40.496Z,8.28
2023-04-29T21:01:26.532Z,8.25
2023-04-29T21:04:12.385Z,8.20
2023-04-29T21:06:58.587Z,8.16
2023-04-29T21:09:44.512Z,8.15
2023-04-29T21:12:30.496Z,8.10
2023-04-29T21:15:17.676Z,8.00
2023-04-29T21:18:04.316Z,7.99
2023-04-29T21:20:51.131Z,7.97
2023-04-29T21:23:36.879Z,7.89
2023-04-29T21:26:22.691Z,7.88
2023-04-29T21:29:08.516Z,7.84
2023-04-29T21:31:55.828Z,7.79
2023-04-29T21:34:42.077Z,7.73
2023-04-29T21:37:28.060Z,7.68
2023-04-29T21:40:14.437Z,7.61
2023-04-29T21:43:00.578Z,7.57
2023-04-29T21:45:46.387Z,7.51
2023-04-29T21:48:33.450Z,7.48
2023-04-29T21:51:19.884Z,7.44
2023-04-29T21:54:08.383Z,7.39
2023-04-29T21:56:54.443Z,7.37
2023-04-29T21:59:40.546Z,7.33
2023-04-29T22:02:27.799Z,7.28
2023-04-29T22:05:15.247Z,7.25
2023-04-29T22:08:02.951Z,7.20
2023-04-29T22:10:48.863Z,7.15
2023-04-29T22:13:34.530Z,7.10
2023-04-29T22:16:20.721Z,7.07
2023-04-29T22:19:07.075Z,7.01
2023-04-29T22:21:53.932Z,6.96
2023-04-29T22:24:39.841Z,6.93
2023-04-29T22:27:25.524Z,6.91
2023-04-29T22:30:11.772Z,6.85
2023-04-29T22:32:58.072Z,6.82
2023-04-29T22:35:44.322Z,6.79
2023-04-29T22:38:31.483Z,6.75
2023-04-29T22:41:19.611Z,6.68
2023-04-29T22:44:05.393Z,6.66
2023-04-29T22:46:51.116Z,6.60
2023-04-29T22:49:36.933Z,6.56
2023-04-29T22:52:23.164Z,6.51
2023-04-29T22:55:10.586Z,6.48
2023-04-29T22:57:56.503Z,6.43
2023-04-29T23:00:44.202Z,6.39
2023-04-29T23:03:30.420Z,6.35
2023-04-29T23:06:16.659Z,6.29
2023-04-29T23:09:03.061Z,6.25
2023-04-29T23:11:50.212Z,6.23
2023-04-29T23:14:36.052Z,6.21
2023-04-29T23:17:21.784Z,6.15
2023-04-29T23:20:08.521Z,6.10
2023-04-29T23:22:54.498Z,6.02
2023-04-29T23:25:40.406Z,6.00
2023-04-29T23:28:27.555Z,5.89
2023-04-29T23:31:13.339Z,5.86
2023-04-29T23:34:00.103Z,5.85
2023-04-29T23:36:46.243Z,5.82
2023-04-29T23:39:31.892Z,5.80
2023-04-29T23:42:17.723Z,5.74
2023-04-29T23:45:05.083Z,5.69
2023-04-29T23:47:50.886Z,5.62
2023-04-29T23:50:36.806Z,5.56
2023-04-29T23:53:22.568Z,5.53
2023-04-29T23:56:08.711Z,5.47
2023-04-29T23:58:54.801Z,5.41
